Time;durP1;ratioP1;P1;durP2;ratioP2;P2;SDS_P1;SDS_P2;PMS_P1;PMS_P2;Temp;Humidity;BMP_temperature;BMP_pressure;BME280_temperature;BME280_humidity;BME280_pressure;Samples;Min_cycle;Max_cycle;Signal;HPM_P1;HPM_P2
2020/12/22 00:02:24;;;;;;;;;;;;;;;19.89;35.61;99969.94;4974632;28;19984;-62
2020/12/22 00:04:51;;;;;;;;;;;;;;;20.03;35.41;99948.84;4992734;28;20316;-61
2020/12/22 00:07:17;;;;;;;;;;;;;;;19.91;35.52;99956.63;5008209;28;19926;-61
2020/12/22 00:09:43;;;;;;;;;;;;;;;20.02;35.44;99952.72;4994376;28;19937;-62
2020/12/22 00:12:16;;;;;;;;;;;;;;;19.91;35.49;99951.09;4988984;28;19926;-61
2020/12/22 00:14:42;;;;;;;;;;;;;;;20.02;35.53;99941.66;4984466;28;20403;-62
2020/12/22 00:17:08;;;;;;;;;;;;;;;20.04;35.42;99952.44;4964895;28;19926;-62
2020/12/22 00:19:35;;;;;;;;;;;;;;;20.07;35.46;99952.69;4990093;28;20020;-62
2020/12/22 00:22:01;;;;;;;;;;;;;;;20.13;35.26;99950.69;4976936;28;20478;-62
2020/12/22 00:24:27;;;;;;;;;;;;;;;20.19;35.14;99962.56;4983170;28;19936;-63
2020/12/22 00:26:53;;;;;;;;;;;;;;;20.33;35.21;99947.00;4976664;28;19926;-61
2020/12/22 00:29:20;;;;;;;;;;;;;;;20.32;34.90;99937.03;4993734;28;19936;-61
2020/12/22 00:31:47;;;;;;;;;;;;;;;20.26;35.14;99924.34;4992735;28;19969;-61
2020/12/22 00:34:14;;;;;;;;;;;;;;;20.24;35.11;99930.16;4992633;28;19934;-62
2020/12/22 00:36:42;;;;;;;;;;;;;;;20.27;35.18;99928.75;4993831;28;19926;-62
2020/12/22 00:39:08;;;;;;;;;;;;;;;20.12;35.53;99915.00;4991335;28;19940;-61
2020/12/22 00:41:34;;;;;;;;;;;;;;;20.16;35.52;99907.78;4987216;28;19926;-62
2020/12/22 00:44:00;;;;;;;;;;;;;;;20.12;35.71;99903.94;4979256;28;19933;-62
2020/12/22 00:46:27;;;;;;;;;;;;;;;19.91;36.06;99906.84;4976661;28;20008;-62
2020/12/22 00:48:53;;;;;;;;;;;;;;;19.93;35.96;99888.03;4999028;28;19934;-61
2020/12/22 00:51:22;;;;;;;;;;;;;;;19.96;35.97;99873.63;4987866;28;20400;-61
2020/12/22 00:53:53;;;;;;;;;;;;;;;19.84;36.12;99873.13;4977425;28;19926;-61
2020/12/22 00:56:19;;;;;;;;;;;;;;;19.90;35.99;99894.13;4992557;28;19933;-61
2020/12/22 00:58:48;;;;;;;;;;;;;;;20.20;35.23;99893.09;4992223;28;19937;-63
2020/12/22 01:01:15;;;;;;;;;;;;;;;20.07;35.63;99885.47;4993317;28;20467;-62
2020/12/22 01:03:42;;;;;;;;;;;;;;;20.07;35.88;99882.69;4981612;28;19926;-62
2020/12/22 01:06:08;;;;;;;;;;;;;;;20.04;35.71;99878.56;4990607;28;19930;-61
2020/12/22 01:08:34;;;;;;;;;;;;;;;19.98;36.02;99868.63;4993404;28;20407;-62
2020/12/22 01:11:00;;;;;;;;;;;;;;;20.11;35.88;99869.09;4992486;28;19926;-62
2020/12/22 01:13:26;;;;;;;;;;;;;;;19.94;36.12;99853.72;4994114;28;19932;-62
2020/12/22 01:15:53;;;;;;;;;;;;;;;19.94;36.12;99869.50;4990634;28;19926;-61
2020/12/22 01:18:19;;;;;;;;;;;;;;;19.89;36.57;99867.59;4992989;28;19925;-61
2020/12/22 01:20:47;;;;;;;;;;;;;;;19.97;36.29;99877.22;4988569;28;20013;-61
2020/12/22 01:23:14;;;;;;;;;;;;;;;20.06;36.37;99861.69;4992814;28;20388;-60
2020/12/22 01:25:40;;;;;;;;;;;;;;;20.06;36.68;99867.22;4975757;28;20008;-63
2020/12/22 01:28:06;;;;;;;;;;;;;;;20.13;36.41;99869.63;4987117;28;20370;-62
2020/12/22 01:30:34;;;;;;;;;;;;;;;20.05;36.87;99858.09;4980872;28;19933;-61
2020/12/22 01:33:00;;;;;;;;;;;;;;;20.27;36.62;99848.50;4992571;28;19933;-62
2020/12/22 01:35:26;;;;;;;;;;;;;;;20.16;36.96;99846.94;4971387;28;20279;-62
2020/12/22 01:37:53;;;;;;;;;;;;;;;20.20;36.75;99848.00;4992071;28;19926;-62
2020/12/22 01:40:19;;;;;;;;;;;;;;;20.08;37.10;99859.47;4975920;28;19925;-63
2020/12/22 01:42:45;;;;;;;;;;;;;;;20.01;37.16;99879.13;4979710;28;19972;-63
2020/12/22 01:45:11;;;;;;;;;;;;;;;20.07;37.42;99877.16;4967900;28;19926;-61
2020/12/22 01:47:40;;;;;;;;;;;;;;;20.11;37.09;99878.22;4988346;28;19933;-65
2020/12/22 01:50:06;;;;;;;;;;;;;;;20.09;37.11;99869.41;4991036;28;19926;-62
2020/12/22 01:52:32;;;;;;;;;;;;;;;19.94;37.57;99870.31;4992374;28;20404;-62
2020/12/22 01:54:59;;;;;;;;;;;;;;;20.08;37.43;99851.16;4991014;28;19930;-61
2020/12/22 01:57:25;;;;;;;;;;;;;;;20.11;37.26;99844.19;4990420;28;19993;-63
2020/12/22 01:59:51;;;;;;;;;;;;;;;19.92;37.49;99842.13;4981111;28;19933;-62
2020/12/22 02:02:17;;;;;;;;;;;;;;;20.04;37.25;99839.84;4984799;28;19930;-63
2020/12/22 02:04:43;;;;;;;;;;;;;;;19.86;37.75;99831.38;4991511;28;19925;-63
2020/12/22 02:07:12;;;;;;;;;;;;;;;19.70;38.20;99827.88;4975028;28;19926;-61
2020/12/22 02:09:39;;;;;;;;;;;;;;;19.65;38.34;99828.75;4976664;28;19940;-62
2020/12/22 02:12:05;;;;;;;;;;;;;;;19.70;38.27;99833.41;5001102;28;19926;-63
2020/12/22 02:14:31;;;;;;;;;;;;;;;19.80;38.11;99833.34;4991241;28;19926;-62
2020/12/22 02:16:57;;;;;;;;;;;;;;;19.86;37.90;99846.03;4990752;28;19933;-61
2020/12/22 02:19:24;;;;;;;;;;;;;;;19.92;37.63;99841.28;4990894;28;19926;-61
2020/12/22 02:21:52;;;;;;;;;;;;;;;19.88;37.88;99835.50;4991629;28;20221;-62
2020/12/22 02:24:19;;;;;;;;;;;;;;;19.94;37.98;99833.53;4992401;28;19926;-61
2020/12/22 02:26:45;;;;;;;;;;;;;;;20.02;37.84;99825.47;4987752;28;19932;-62
2020/12/22 02:29:11;;;;;;;;;;;;;;;20.03;37.97;99821.59;4985383;28;19961;-62
2020/12/22 02:31:38;;;;;;;;;;;;;;;19.92;38.20;99808.09;4991972;28;19925;-61
2020/12/22 02:34:05;;;;;;;;;;;;;;;19.97;38.15;99799.78;4992106;28;19926;-62
2020/12/22 02:36:33;;;;;;;;;;;;;;;19.93;38.01;99794.00;4991820;28;19932;-60
2020/12/22 02:38:59;;;;;;;;;;;;;;;19.90;38.37;99789.03;4991984;28;20299;-62
2020/12/22 02:41:26;;;;;;;;;;;;;;;19.80;38.56;99783.56;4990523;28;20436;-62
2020/12/22 02:43:52;;;;;;;;;;;;;;;19.89;38.29;99784.59;4988226;28;20020;-61
2020/12/22 02:46:18;;;;;;;;;;;;;;;19.85;38.58;99780.75;4976245;28;19930;-62
2020/12/22 02:48:44;;;;;;;;;;;;;;;19.80;38.68;99771.66;4998653;28;19933;-61
2020/12/22 02:51:11;;;;;;;;;;;;;;;19.77;39.08;99773.06;4993341;28;19976;-62
2020/12/22 02:53:37;;;;;;;;;;;;;;;19.83;38.98;99766.41;4972548;28;19957;-62
2020/12/22 02:56:05;;;;;;;;;;;;;;;19.95;38.51;99774.34;4972682;28;19926;-61
2020/12/22 02:58:31;;;;;;;;;;;;;;;19.95;38.43;99768.81;4973895;28;19993;-62
2020/12/22 03:00:57;;;;;;;;;;;;;;;20.32;37.88;99762.66;4982057;28;20307;-61
2020/12/22 03:03:23;;;;;;;;;;;;;;;20.11;38.49;99759.25;4976250;28;19926;-61
2020/12/22 03:05:50;;;;;;;;;;;;;;;19.98;38.60;99752.47;4976404;28;19926;-62
2020/12/22 03:08:16;;;;;;;;;;;;;;;20.03;38.47;99757.94;4974977;28;20308;-62
2020/12/22 03:10:42;;;;;;;;;;;;;;;20.02;38.59;99747.19;4983222;28;19925;-62
2020/12/22 03:13:09;;;;;;;;;;;;;;;20.09;38.71;99750.44;4992098;28;19933;-63
2020/12/22 03:15:35;;;;;;;;;;;;;;;20.19;38.46;99738.44;4973058;28;20024;-61
2020/12/22 03:18:04;;;;;;;;;;;;;;;20.27;38.27;99733.09;4985083;28;19926;-61
2020/12/22 03:20:30;;;;;;;;;;;;;;;20.27;37.98;99732.28;4993689;28;19980;-61
2020/12/22 03:22:56;;;;;;;;;;;;;;;20.21;38.54;99727.91;4993576;28;19925;-62
2020/12/22 03:25:22;;;;;;;;;;;;;;;20.14;38.48;99731.00;4992502;28;19926;-62
2020/12/22 03:27:48;;;;;;;;;;;;;;;20.02;38.64;99709.28;4983965;28;19930;-62
2020/12/22 03:30:15;;;;;;;;;;;;;;;19.95;38.63;99705.19;5004871;28;20296;-61
2020/12/22 03:32:42;;;;;;;;;;;;;;;19.99;38.89;99711.78;4999707;28;20020;-62
2020/12/22 03:35:09;;;;;;;;;;;;;;;19.96;38.65;99706.84;4999888;28;20343;-61
2020/12/22 03:37:36;;;;;;;;;;;;;;;19.93;38.80;99704.66;4995610;28;19926;-61
2020/12/22 03:40:04;;;;;;;;;;;;;;;20.00;38.72;99711.50;4993691;28;19933;-61
2020/12/22 03:42:30;;;;;;;;;;;;;;;19.99;38.83;99701.56;4995038;28;19926;-60
2020/12/22 03:44:57;;;;;;;;;;;;;;;20.00;38.87;99713.44;4995515;28;20435;-62
2020/12/22 03:47:23;;;;;;;;;;;;;;;20.00;38.68;99710.69;4990274;28;19926;-61
2020/12/22 03:49:49;;;;;;;;;;;;;;;20.07;38.83;99709.22;4953439;28;19926;-62
2020/12/22 03:52:16;;;;;;;;;;;;;;;20.19;38.34;99711.59;4995112;28;19934;-60
2020/12/22 03:54:42;;;;;;;;;;;;;;;20.08;38.76;99718.34;4995058;28;20453;-60
2020/12/22 03:57:08;;;;;;;;;;;;;;;20.12;38.61;99713.03;4992672;28;19936;-61
2020/12/22 03:59:35;;;;;;;;;;;;;;;20.22;38.50;99707.41;4981991;28;20596;-61
2020/12/22 04:02:02;;;;;;;;;;;;;;;20.01;38.96;99706.78;4992632;28;19925;-62
2020/12/22 04:04:28;;;;;;;;;;;;;;;19.94;39.08;99715.44;4994791;28;20463;-61
2020/12/22 04:06:54;;;;;;;;;;;;;;;19.92;39.18;99725.94;4993787;28;19942;-62
2020/12/22 04:09:20;;;;;;;;;;;;;;;20.05;39.04;99722.53;4993245;28;19933;-60
2020/12/22 04:11:47;;;;;;;;;;;;;;;20.07;39.00;99712.00;4994628;28;20359;-60
2020/12/22 04:14:13;;;;;;;;;;;;;;;20.10;38.90;99704.22;4987808;28;19932;-61
2020/12/22 04:16:40;;;;;;;;;;;;;;;20.00;39.36;99705.97;4992236;28;19932;-60
2020/12/22 04:19:06;;;;;;;;;;;;;;;20.10;39.12;99701.47;5004071;28;19926;-61
2020/12/22 04:21:33;;;;;;;;;;;;;;;20.21;38.70;99692.75;5003739;28;20405;-60
2020/12/22 04:23:59;;;;;;;;;;;;;;;20.20;38.87;99685.56;4994398;28;20380;-61
2020/12/22 04:26:26;;;;;;;;;;;;;;;20.32;38.37;99672.16;4993504;28;19926;-60
2020/12/22 04:28:52;;;;;;;;;;;;;;;20.12;39.11;99675.13;4992132;28;19934;-60
2020/12/22 04:31:21;;;;;;;;;;;;;;;20.15;39.02;99670.97;5042741;22;19979;-60
2020/12/22 04:33:48;;;;;;;;;;;;;;;20.17;39.00;99677.03;5015187;28;19968;-61
2020/12/22 04:36:15;;;;;;;;;;;;;;;20.18;38.92;99686.97;5031456;28;19925;-62
2020/12/22 04:38:42;;;;;;;;;;;;;;;20.24;38.70;99683.03;5030687;28;19932;-61
2020/12/22 04:41:10;;;;;;;;;;;;;;;20.31;38.51;99678.81;5032304;28;19925;-63
2020/12/22 04:43:37;;;;;;;;;;;;;;;20.20;38.89;99687.50;5032622;28;19925;-61
2020/12/22 04:46:04;;;;;;;;;;;;;;;20.23;38.97;99684.97;5031695;28;19929;-61
2020/12/22 04:48:33;;;;;;;;;;;;;;;20.30;38.61;99682.69;5031305;28;20415;-61
2020/12/22 04:50:59;;;;;;;;;;;;;;;20.32;38.97;99668.56;5032303;28;19931;-62
2020/12/22 04:53:26;;;;;;;;;;;;;;;20.39;38.79;99669.09;5031442;28;19968;-61
2020/12/22 04:55:52;;;;;;;;;;;;;;;20.24;38.96;99671.97;5031367;28;19948;-62
2020/12/22 04:58:18;;;;;;;;;;;;;;;20.17;39.19;99671.50;5031355;28;19925;-61
2020/12/22 05:00:45;;;;;;;;;;;;;;;20.22;39.04;99674.22;5030941;28;19925;-62
2020/12/22 05:03:12;;;;;;;;;;;;;;;20.21;39.34;99669.78;5031630;28;19953;-62
2020/12/22 05:05:38;;;;;;;;;;;;;;;20.21;39.25;99656.78;5030886;28;19948;-61
2020/12/22 05:08:05;;;;;;;;;;;;;;;20.11;39.31;99658.81;5032835;28;19925;-61
2020/12/22 05:10:31;;;;;;;;;;;;;;;20.04;39.49;99646.19;5032231;28;19933;-62
2020/12/22 05:12:57;;;;;;;;;;;;;;;20.12;39.45;99649.41;5030248;28;20028;-60
2020/12/22 05:15:25;;;;;;;;;;;;;;;20.09;39.53;99648.06;5030789;28;19927;-61
2020/12/22 05:17:51;;;;;;;;;;;;;;;20.17;39.26;99649.34;5029517;28;19929;-61
2020/12/22 05:20:18;;;;;;;;;;;;;;;20.25;39.23;99649.53;5010801;28;20402;-61
2020/12/22 05:22:44;;;;;;;;;;;;;;;20.32;38.96;99646.44;5044024;28;19940;-61
2020/12/22 05:25:15;;;;;;;;;;;;;;;20.25;39.25;99648.72;5031008;28;19925;-62
2020/12/22 05:27:44;;;;;;;;;;;;;;;20.24;39.36;99649.84;5032958;28;19925;-61
2020/12/22 05:30:10;;;;;;;;;;;;;;;20.36;39.07;99653.03;5033503;28;19929;-61
2020/12/22 05:32:36;;;;;;;;;;;;;;;20.31;39.28;99640.06;5039663;28;20176;-61
2020/12/22 05:35:02;;;;;;;;;;;;;;;20.31;39.29;99644.78;5057687;28;19925;-62
2020/12/22 05:37:29;;;;;;;;;;;;;;;20.39;38.91;99644.16;5043735;28;19948;-61
2020/12/22 05:39:55;;;;;;;;;;;;;;;20.41;39.07;99647.47;5032377;28;19925;-60
2020/12/22 05:42:21;;;;;;;;;;;;;;;20.48;38.89;99634.06;5030496;28;19932;-61
2020/12/22 05:44:47;;;;;;;;;;;;;;;20.51;38.69;99644.56;5032366;28;19925;-60
2020/12/22 05:47:15;;;;;;;;;;;;;;;20.62;38.69;99640.56;5031882;28;19925;-60
2020/12/22 05:49:55;;;;;;;;;;;;;;;20.64;38.67;99641.09;5031353;28;20019;-61
2020/12/22 05:52:25;;;;;;;;;;;;;;;20.60;38.58;99642.78;5030709;28;19976;-61
2020/12/22 05:54:52;;;;;;;;;;;;;;;20.54;39.03;99634.84;5030498;28;20395;-61
2020/12/22 05:57:19;;;;;;;;;;;;;;;20.59;38.64;99638.38;5030597;28;19931;-61
2020/12/22 05:59:45;;;;;;;;;;;;;;;20.51;38.78;99633.50;5034558;28;20318;-62
2020/12/22 06:02:11;;;;;;;;;;;;;;;20.59;38.64;99634.78;5033308;28;19925;-61
2020/12/22 06:04:37;;;;;;;;;;;;;;;20.56;39.03;99632.59;5011629;28;19933;-61
2020/12/22 06:07:03;;;;;;;;;;;;;;;20.58;38.84;99633.94;5026986;28;20180;-61
2020/12/22 06:09:29;;;;;;;;;;;;;;;20.62;38.82;99626.72;5029153;28;19933;-61
2020/12/22 06:11:59;;;;;;;;;;;;;;;20.56;39.07;99630.66;5012653;28;20381;-60
2020/12/22 06:14:26;;;;;;;;;;;;;;;20.55;39.08;99623.47;5013626;28;19944;-61
2020/12/22 06:16:52;;;;;;;;;;;;;;;20.60;38.69;99623.41;5030274;28;19948;-61
2020/12/22 06:19:18;;;;;;;;;;;;;;;20.56;38.93;99616.00;5047107;28;19932;-61
2020/12/22 06:21:56;;;;;;;;;;;;;;;20.70;38.58;99622.47;5036569;28;20418;-65
2020/12/22 06:24:22;;;;;;;;;;;;;;;20.83;38.18;99627.25;5036727;28;19956;-61
2020/12/22 06:26:58;;;;;;;;;;;;;;;20.81;38.29;99635.03;5032946;28;20024;-61
2020/12/22 06:29:25;;;;;;;;;;;;;;;20.60;38.63;99623.41;5032275;28;20008;-60
2020/12/22 06:31:51;;;;;;;;;;;;;;;20.62;38.83;99623.94;5031416;28;19929;-60
2020/12/22 06:34:24;;;;;;;;;;;;;;;20.86;38.35;99623.06;5031039;28;19926;-60
2020/12/22 06:36:57;;;;;;;;;;;;;;;21.02;37.59;99627.28;5012464;28;20525;-60
2020/12/22 06:39:42;;;;;;;;;;;;;;;20.86;38.17;99612.81;5030403;28;20383;-60
2020/12/22 06:42:31;;;;;;;;;;;;;;;20.96;37.39;99622.91;5033657;28;20035;-63
2020/12/22 06:45:16;;;;;;;;;;;;;;;20.90;37.93;99636.03;5028483;28;19925;-61
2020/12/22 06:47:42;;;;;;;;;;;;;;;20.97;37.67;99632.88;5031311;28;19932;-60
2020/12/22 06:50:09;;;;;;;;;;;;;;;20.86;37.71;99634.97;5030746;28;19926;-60
2020/12/22 06:52:42;;;;;;;;;;;;;;;20.95;37.72;99629.59;5030221;28;19926;-60
2020/12/22 06:55:45;;;;;;;;;;;;;;;20.88;37.82;99631.91;5012750;28;20403;-60
2020/12/22 06:58:23;;;;;;;;;;;;;;;20.76;38.08;99629.59;5030541;28;20020;-60
2020/12/22 07:00:49;;;;;;;;;;;;;;;20.86;37.93;99634.13;5031540;28;19933;-60
2020/12/22 07:03:15;;;;;;;;;;;;;;;20.99;37.46;99633.41;5028891;28;20256;-61
2020/12/22 07:05:46;;;;;;;;;;;;;;;21.19;37.03;99635.88;5030067;28;20337;-60
2020/12/22 07:08:13;;;;;;;;;;;;;;;21.29;36.76;99629.38;5029670;28;19925;-60
2020/12/22 07:10:42;;;;;;;;;;;;;;;21.35;37.03;99620.69;5039003;28;20347;-63
2020/12/22 07:13:08;;;;;;;;;;;;;;;21.45;36.56;99641.06;5028569;28;20032;-59
2020/12/22 07:15:35;;;;;;;;;;;;;;;21.57;36.20;99624.75;5012182;28;19926;-59
2020/12/22 07:18:05;;;;;;;;;;;;;;;21.54;36.37;99628.13;5011388;28;19932;-60
2020/12/22 07:20:43;;;;;;;;;;;;;;;21.49;36.58;99644.84;5029212;28;20095;-60
2020/12/22 07:23:10;;;;;;;;;;;;;;;21.33;36.83;99638.75;5028065;28;19940;-59
2020/12/22 07:25:36;;;;;;;;;;;;;;;21.45;36.65;99635.53;5029391;28;19932;-60
2020/12/22 07:28:04;;;;;;;;;;;;;;;21.51;36.28;99639.84;5029296;28;19926;-60
2020/12/22 07:30:30;;;;;;;;;;;;;;;21.61;36.41;99639.69;5029225;28;19971;-61
2020/12/22 07:32:57;;;;;;;;;;;;;;;21.50;36.39;99639.00;5042300;28;20495;-61
2020/12/22 07:35:23;;;;;;;;;;;;;;;21.51;36.67;99634.28;5028532;28;19925;-60
2020/12/22 07:37:52;;;;;;;;;;;;;;;21.20;36.70;99636.69;5026933;28;19933;-62
2020/12/22 07:40:18;;;;;;;;;;;;;;;21.21;37.07;99636.44;5028404;28;20565;-60
2020/12/22 07:42:44;;;;;;;;;;;;;;;21.06;37.41;99633.88;5028718;28;19925;-62
2020/12/22 07:45:11;;;;;;;;;;;;;;;21.03;37.33;99634.47;5028318;28;20341;-60
2020/12/22 07:47:37;;;;;;;;;;;;;;;21.01;37.29;99631.16;5042797;28;20399;-60
2020/12/22 07:50:13;;;;;;;;;;;;;;;21.03;37.50;99634.47;5032397;28;19926;-60
2020/12/22 07:52:57;;;;;;;;;;;;;;;21.00;37.53;99630.34;5017754;28;20017;-63
2020/12/22 07:55:23;;;;;;;;;;;;;;;21.01;37.46;99633.94;5032469;28;20383;-62
2020/12/22 07:57:50;;;;;;;;;;;;;;;21.15;37.20;99648.66;5032117;28;20303;-61
2020/12/22 08:00:16;;;;;;;;;;;;;;;21.01;37.51;99648.63;5031852;28;19932;-61
2020/12/22 08:02:43;;;;;;;;;;;;;;;21.05;37.41;99648.84;5032004;28;19925;-60
2020/12/22 08:05:13;;;;;;;;;;;;;;;21.10;37.48;99651.53;5033349;28;19925;-60
2020/12/22 08:07:42;;;;;;;;;;;;;;;21.09;37.34;99647.13;5033412;28;20023;-62
2020/12/22 08:10:11;;;;;;;;;;;;;;;21.34;37.04;99654.25;5033494;28;19947;-60
2020/12/22 08:12:38;;;;;;;;;;;;;;;;;;5033812;28;19932;-62
2020/12/22 08:15:05;;;;;;;;;;;;;;;21.45;36.70;99652.16;5032353;28;19961;-60
2020/12/22 08:17:33;;;;;;;;;;;;;;;21.40;36.51;99656.66;5028519;28;20474;-60
2020/12/22 08:19:59;;;;;;;;;;;;;;;;;;5020389;28;19933;-60
2020/12/22 08:22:27;;;;;;;;;;;;;;;21.37;36.75;99656.44;5032553;28;20024;-60
2020/12/22 08:24:53;;;;;;;;;;;;;;;21.69;36.31;99656.44;5038564;28;19991;-60
2020/12/22 08:27:19;;;;;;;;;;;;;;;21.79;36.05;99662.97;5031284;28;19925;-60
2020/12/22 08:29:46;;;;;;;;;;;;;;;21.85;36.30;99665.31;5032347;28;20013;-60
2020/12/22 08:32:13;;;;;;;;;;;;;;;21.80;36.39;99676.53;5033530;28;19926;-61
2020/12/22 08:34:43;;;;;;;;;;;;;;;21.98;36.26;99677.59;5031797;28;19926;-61
2020/12/22 08:37:09;;;;;;;;;;;;;;;22.04;35.80;99676.41;5032334;28;19925;-60
2020/12/22 08:39:39;;;;;;;;;;;;;;;22.16;35.49;99684.25;5032811;28;19929;-61
2020/12/22 08:42:06;;;;;;;;;;;;;;;22.27;35.61;99680.16;5031261;28;19925;-60
2020/12/22 08:44:33;;;;;;;;;;;;;;;22.19;35.71;99683.63;5032514;28;19932;-60
2020/12/22 08:47:08;;;;;;;;;;;;;;;22.27;35.34;99674.59;5031208;28;19929;-60
2020/12/22 08:49:35;;;;;;;;;;;;;;;22.39;35.34;99680.47;5032558;28;20303;-62
2020/12/22 08:52:10;;;;;;;;;;;;;;;22.39;34.94;99683.25;5032478;28;19929;-60
2020/12/22 08:54:37;;;;;;;;;;;;;;;22.42;35.15;99681.81;5013371;28;19940;-61
2020/12/22 08:57:12;;;;;;;;;;;;;;;22.31;35.40;99679.22;5034214;28;19972;-60
2020/12/22 08:59:38;;;;;;;;;;;;;;;22.46;34.97;99678.13;5031903;28;19925;-60
2020/12/22 09:02:05;;;;;;;;;;;;;;;22.37;35.40;99688.28;5032139;28;19933;-61
2020/12/22 09:04:32;;;;;;;;;;;;;;;22.20;35.60;99685.28;5029698;28;20406;-60
2020/12/22 09:06:58;;;;;;;;;;;;;;;21.89;36.45;99674.69;5030922;28;20405;-61
2020/12/22 09:09:30;;;;;;;;;;;;;;;21.66;36.81;99676.47;5032217;28;19948;-60
2020/12/22 09:12:06;;;;;;;;;;;;;;;21.64;36.61;99694.53;5030671;28;19932;-61
2020/12/22 09:14:39;;;;;;;;;;;;;;;21.62;37.15;99696.78;5032147;28;20546;-60
2020/12/22 09:17:06;;;;;;;;;;;;;;;21.77;37.04;99692.97;5014716;28;20040;-61
2020/12/22 09:19:42;;;;;;;;;;;;;;;21.94;36.40;99696.81;5031734;28;20395;-60
2020/12/22 09:22:08;;;;;;;;;;;;;;;21.74;37.00;99706.31;5014113;28;19932;-60
2020/12/22 09:24:35;;;;;;;;;;;;;;;21.58;37.56;99706.84;5032041;28;19929;-61
2020/12/22 09:27:05;;;;;;;;;;;;;;;21.48;37.77;99709.78;5028656;28;19930;-60
2020/12/22 09:29:31;;;;;;;;;;;;;;;21.42;37.85;99697.13;5032934;28;20017;-60
2020/12/22 09:31:58;;;;;;;;;;;;;;;21.36;37.65;99711.06;5031778;28;19925;-59
2020/12/22 09:34:25;;;;;;;;;;;;;;;21.51;37.86;99711.94;5031239;28;19925;-60
2020/12/22 09:36:52;;;;;;;;;;;;;;;21.65;37.50;99710.88;5030453;28;20084;-60
2020/12/22 09:39:18;;;;;;;;;;;;;;;21.63;37.75;99718.69;5031285;28;19932;-60
2020/12/22 09:41:44;;;;;;;;;;;;;;;21.79;37.00;99715.66;5031674;28;19925;-60
2020/12/22 09:44:11;;;;;;;;;;;;;;;21.78;37.08;99716.78;5028991;28;19928;-60
2020/12/22 09:46:37;;;;;;;;;;;;;;;21.53;37.66;99710.50;5034823;28;19925;-60
2020/12/22 09:49:03;;;;;;;;;;;;;;;21.70;36.83;99715.53;5031256;28;19930;-61
2020/12/22 09:51:30;;;;;;;;;;;;;;;21.82;36.46;99710.34;5030021;28;19925;-60
2020/12/22 09:54:12;;;;;;;;;;;;;;;21.65;37.51;99723.91;5031313;28;20410;-60
2020/12/22 09:56:38;;;;;;;;;;;;;;;21.69;37.35;99716.66;5030893;28;19932;-60
2020/12/22 09:59:05;;;;;;;;;;;;;;;21.79;37.75;99712.91;5030437;28;19953;-60
2020/12/22 10:01:32;;;;;;;;;;;;;;;21.66;37.35;99712.53;5027300;28;19934;-61
2020/12/22 10:03:58;;;;;;;;;;;;;;;21.79;37.42;99719.28;5030820;28;19972;-60
2020/12/22 10:06:24;;;;;;;;;;;;;;;21.60;37.49;99713.72;5027468;28;19925;-60
2020/12/22 10:08:51;;;;;;;;;;;;;;;21.79;37.57;99719.28;5031493;28;19936;-60
2020/12/22 10:11:18;;;;;;;;;;;;;;;21.76;37.56;99717.09;5028814;28;20534;-60
2020/12/22 10:13:45;;;;;;;;;;;;;;;21.70;37.54;99715.53;5029972;28;19926;-62
2020/12/22 10:16:12;;;;;;;;;;;;;;;21.57;38.27;99719.06;5031353;28;19935;-60
2020/12/22 10:18:39;;;;;;;;;;;;;;;21.88;37.53;99714.66;5031404;28;19925;-62
2020/12/22 10:21:07;;;;;;;;;;;;;;;21.71;37.53;99714.41;5034700;28;20326;-60
2020/12/22 10:23:33;;;;;;;;;;;;;;;21.69;38.10;99720.25;5031893;28;19925;-60
2020/12/22 10:26:01;;;;;;;;;;;;;;;21.63;37.59;99724.22;5032427;28;20024;-59
2020/12/22 10:28:27;;;;;;;;;;;;;;;21.77;37.75;99721.53;5029779;28;19925;-62
2020/12/22 10:30:53;;;;;;;;;;;;;;;21.75;37.56;99718.22;5031382;28;19952;-62
2020/12/22 10:33:19;;;;;;;;;;;;;;;21.92;37.23;99724.03;5029663;28;19956;-62
2020/12/22 10:35:46;;;;;;;;;;;;;;;21.94;37.56;99716.22;5046985;28;19932;-60
2020/12/22 10:38:12;;;;;;;;;;;;;;;22.36;36.40;99717.19;5043756;23;20383;-61
2020/12/22 10:40:38;;;;;;;;;;;;;;;22.41;36.55;99711.53;5030310;28;19925;-61
2020/12/22 10:43:05;;;;;;;;;;;;;;;22.24;36.57;99716.84;5031134;28;19932;-60
2020/12/22 10:45:32;;;;;;;;;;;;;;;22.23;36.39;99713.25;5031018;28;20024;-61
2020/12/22 10:47:58;;;;;;;;;;;;;;;21.93;36.86;99725.69;5030018;28;19925;-61
2020/12/22 10:50:24;;;;;;;;;;;;;;;22.04;37.16;99721.63;5029939;28;19925;-61
2020/12/22 10:52:51;;;;;;;;;;;;;;;21.87;37.99;99717.72;5035075;28;19952;-61
2020/12/22 10:55:17;;;;;;;;;;;;;;;21.95;37.48;99728.16;5034233;28;19925;-61
2020/12/22 10:57:44;;;;;;;;;;;;;;;21.89;37.70;99726.56;5030639;28;19925;-62
2020/12/22 11:00:10;;;;;;;;;;;;;;;21.86;37.78;99736.34;5030949;28;20139;-61
2020/12/22 11:02:37;;;;;;;;;;;;;;;21.79;37.75;99735.91;5031974;28;19948;-62
2020/12/22 11:05:04;;;;;;;;;;;;;;;21.83;37.27;99723.06;5014137;28;20398;-61
2020/12/22 11:10:05;;;;;;;;;;;;;;;22.00;36.59;99737.22;5025010;28;20012;-62
2020/12/22 11:12:32;;;;;;;;;;;;;;;21.83;37.40;99736.94;5030180;28;20015;-63
2020/12/22 11:14:59;;;;;;;;;;;;;;;21.79;37.47;99737.88;5014389;28;20016;-61
2020/12/22 11:17:26;;;;;;;;;;;;;;;21.95;37.55;99723.41;5030699;28;19925;-61
2020/12/22 11:19:52;;;;;;;;;;;;;;;21.84;37.21;99737.75;5031852;28;20283;-62
2020/12/22 11:22:19;;;;;;;;;;;;;;;21.79;37.76;99730.38;5025816;28;20313;-62
2020/12/22 11:24:47;;;;;;;;;;;;;;;21.85;37.40;99748.56;5013583;28;19975;-63
2020/12/22 11:27:13;;;;;;;;;;;;;;;22.04;36.63;99743.03;5007383;28;20263;-63
2020/12/22 11:29:39;;;;;;;;;;;;;;;22.09;36.58;99739.34;5017961;28;19932;-63
2020/12/22 11:32:06;;;;;;;;;;;;;;;22.09;36.19;99739.34;5018387;28;19929;-62
2020/12/22 11:34:32;;;;;;;;;;;;;;;22.09;37.13;99739.34;5042258;28;19925;-61
2020/12/22 11:36:59;;;;;;;;;;;;;;;22.30;36.28;99740.63;5023826;28;19932;-61
2020/12/22 11:39:25;;;;;;;;;;;;;;;22.34;36.25;99741.66;5034239;28;20007;-62
2020/12/22 11:41:51;;;;;;;;;;;;;;;22.44;36.61;99748.97;5008098;28;20203;-63
2020/12/22 11:44:17;;;;;;;;;;;;;;;22.52;35.54;99749.09;5035640;28;20016;-62
2020/12/22 11:46:44;;;;;;;;;;;;;;;22.44;36.10;99751.75;5034976;28;19931;-62
2020/12/22 11:49:11;;;;;;;;;;;;;;;22.37;36.24;99752.16;5001255;28;19925;-61
2020/12/22 11:51:38;;;;;;;;;;;;;;;22.46;35.72;99755.88;5017828;28;19987;-62
2020/12/22 11:54:05;;;;;;;;;;;;;;;22.54;36.21;99746.81;5029441;28;20473;-61
2020/12/22 11:56:31;;;;;;;;;;;;;;;22.29;36.57;99755.63;5013193;28;19929;-61
2020/12/22 11:58:58;;;;;;;;;;;;;;;22.39;35.71;99761.00;5012920;28;19936;-64
2020/12/22 12:01:27;;;;;;;;;;;;;;;22.43;36.10;99759.25;5017253;28;19963;-63
2020/12/22 12:03:54;;;;;;;;;;;;;;;22.55;35.97;99758.75;5016992;28;19936;-62
2020/12/22 12:06:20;;;;;;;;;;;;;;;22.50;35.93;99750.53;5017632;28;19925;-63
2020/12/22 12:08:46;;;;;;;;;;;;;;;22.41;36.00;99753.19;5033395;28;20037;-62
2020/12/22 12:11:13;;;;;;;;;;;;;;;22.33;36.18;99754.72;5031926;28;19932;-62
2020/12/22 12:13:39;;;;;;;;;;;;;;;22.34;36.47;99749.97;5018128;28;19968;-63
2020/12/22 12:16:05;;;;;;;;;;;;;;;22.26;37.12;99756.22;5021641;28;19929;-61
2020/12/22 12:18:32;;;;;;;;;;;;;;;22.40;36.33;99748.78;5045519;28;19929;-62
2020/12/22 12:20:58;;;;;;;;;;;;;;;22.49;35.64;99748.91;5035572;28;20441;-63
2020/12/22 12:23:24;;;;;;;;;;;;;;;22.39;36.42;99750.72;5034378;28;19929;-64
2020/12/22 12:25:52;;;;;;;;;;;;;;;22.41;36.89;99753.19;5017247;28;19944;-60
2020/12/22 12:28:19;;;;;;;;;;;;;;;22.29;36.83;99750.06;5016446;28;20345;-63
2020/12/22 12:30:45;;;;;;;;;;;;;;;22.49;35.81;99760.81;5032698;28;19937;-62
2020/12/22 12:33:11;;;;;;;;;;;;;;;22.41;36.42;99764.31;5034319;28;19984;-60
2020/12/22 12:35:37;;;;;;;;;;;;;;;22.46;36.33;99771.72;5033382;28;19929;-62
2020/12/22 12:38:04;;;;;;;;;;;;;;;22.32;37.43;99766.94;5016218;28;19968;-62
2020/12/22 12:40:30;;;;;;;;;;;;;;;22.30;36.64;99765.59;5031700;28;19925;-62
2020/12/22 12:42:56;;;;;;;;;;;;;;;22.60;36.29;99767.81;5034362;28;19931;-62
2020/12/22 12:45:23;;;;;;;;;;;;;;;22.45;37.00;99768.13;5015923;28;19991;-62
2020/12/22 12:47:49;;;;;;;;;;;;;;;22.66;36.73;99768.53;5015759;28;20352;-62
2020/12/22 12:50:15;;;;;;;;;;;;;;;22.59;35.65;99768.13;5028718;28;20435;-62
2020/12/22 12:52:42;;;;;;;;;;;;;;;22.47;36.63;99774.19;5032820;28;19925;-63